sensor_id;sensor_type;location;lat;lon;timestamp;P1;durP1;ratioP1;P2;durP2;ratioP2
70049;SDS011;57391;51.306;22.680;2024-01-15T00:01:43;16.30;;;7.80;;
70049;SDS011;57391;51.306;22.680;2024-01-15T00:03:45;16.90;;;7.90;;
70049;SDS011;57391;51.306;22.680;2024-01-15T00:05:47;18.40;;;8.40;;
70049;SDS011;57391;51.306;22.680;2024-01-15T00:07:49;17.10;;;8.30;;
70049;SDS011;57391;51.306;22.680;2024-01-15T00:09:50;19.60;;;8.40;;
70049;SDS011;57391;51.306;22.680;2024-01-15T00:11:52;17.70;;;7.40;;
70049;SDS011;57391;51.306;22.680;2024-01-15T00:13:54;15.30;;;7.20;;
70049;SDS011;57391;51.306;22.680;2024-01-15T00:15:55;19.10;;;8.70;;
70049;SDS011;57391;51.306;22.680;2024-01-15T00:17:57;15.10;;;6.80;;
70049;SDS011;57391;51.306;22.680;2024-01-15T00:19:59;19.40;;;8.40;;
70049;SDS011;57391;51.306;22.680;2024-01-15T00:22:01;14.40;;;7.10;;
70049;SDS011;57391;51.306;22.680;2024-01-15T00:24:03;18.80;;;8.30;;
70049;SDS011;57391;51.306;22.680;2024-01-15T00:26:05;15.50;;;7.60;;
70049;SDS011;57391;51.306;22.680;2024-01-15T00:28:06;13.50;;;6.80;;
70049;SDS011;57391;51.306;22.680;2024-01-15T00:30:09;16.30;;;6.50;;
70049;SDS011;57391;51.306;22.680;2024-01-15T00:32:11;16.70;;;7.50;;
70049;SDS011;57391;51.306;22.680;2024-01-15T00:34:13;15.50;;;7.50;;
70049;SDS011;57391;51.306;22.680;2024-01-15T00:36:14;17.30;;;7.80;;
70049;SDS011;57391;51.306;22.680;2024-01-15T00:38:18;16.40;;;7.40;;
70049;SDS011;57391;51.306;22.680;2024-01-15T00:40:19;15.60;;;7.70;;
70049;SDS011;57391;51.306;22.680;2024-01-15T00:42:21;17.20;;;8.00;;
70049;SDS011;57391;51.306;22.680;2024-01-15T00:44:23;14.60;;;6.80;;
70049;SDS011;57391;51.306;22.680;2024-01-15T00:46:25;16.60;;;7.70;;
70049;SDS011;57391;51.306;22.680;2024-01-15T00:48:26;16.00;;;7.70;;
70049;SDS011;57391;51.306;22.680;2024-01-15T00:50:29;19.80;;;9.20;;
70049;SDS011;57391;51.306;22.680;2024-01-15T00:52:31;19.20;;;9.40;;
70049;SDS011;57391;51.306;22.680;2024-01-15T00:54:33;16.60;;;8.10;;
70049;SDS011;57391;51.306;22.680;2024-01-15T00:56:35;20.00;;;8.90;;
70049;SDS011;57391;51.306;22.680;2024-01-15T00:58:38;19.40;;;8.90;;
70049;SDS011;57391;51.306;22.680;2024-01-15T01:00:39;15.70;;;7.00;;
70049;SDS011;57391;51.306;22.680;2024-01-15T01:02:42;16.40;;;7.50;;
70049;SDS011;57391;51.306;22.680;2024-01-15T01:04:43;19.70;;;8.90;;
70049;SDS011;57391;51.306;22.680;2024-01-15T01:06:45;18.90;;;8.20;;
70049;SDS011;57391;51.306;22.680;2024-01-15T01:08:47;17.10;;;8.80;;
70049;SDS011;57391;51.306;22.680;2024-01-15T01:10:49;19.50;;;9.60;;
70049;SDS011;57391;51.306;22.680;2024-01-15T01:12:50;18.40;;;8.30;;
70049;SDS011;57391;51.306;22.680;2024-01-15T01:14:52;18.80;;;8.50;;
70049;SDS011;57391;51.306;22.680;2024-01-15T01:16:54;13.10;;;6.30;;
70049;SDS011;57391;51.306;22.680;2024-01-15T01:18:56;20.70;;;9.20;;
70049;SDS011;57391;51.306;22.680;2024-01-15T01:20:57;17.20;;;8.00;;
70049;SDS011;57391;51.306;22.680;2024-01-15T01:22:59;17.80;;;8.40;;
70049;SDS011;57391;51.306;22.680;2024-01-15T01:25:01;15.70;;;7.70;;
70049;SDS011;57391;51.306;22.680;2024-01-15T01:27:03;19.60;;;8.60;;
70049;SDS011;57391;51.306;22.680;2024-01-15T01:29:05;17.40;;;8.10;;
70049;SDS011;57391;51.306;22.680;2024-01-15T01:31:06;20.00;;;8.40;;
70049;SDS011;57391;51.306;22.680;2024-01-15T01:33:09;20.30;;;9.50;;
70049;SDS011;57391;51.306;22.680;2024-01-15T01:35:12;21.60;;;8.70;;
70049;SDS011;57391;51.306;22.680;2024-01-15T01:37:14;18.80;;;8.80;;
70049;SDS011;57391;51.306;22.680;2024-01-15T01:39:16;17.80;;;8.30;;
70049;SDS011;57391;51.306;22.680;2024-01-15T01:41:17;17.40;;;7.70;;
70049;SDS011;57391;51.306;22.680;2024-01-15T01:43:19;17.40;;;8.00;;
70049;SDS011;57391;51.306;22.680;2024-01-15T01:45:21;16.90;;;8.60;;
70049;SDS011;57391;51.306;22.680;2024-01-15T01:47:23;15.80;;;7.40;;
70049;SDS011;57391;51.306;22.680;2024-01-15T01:49:28;16.90;;;7.90;;
70049;SDS011;57391;51.306;22.680;2024-01-15T01:51:30;19.40;;;8.30;;
70049;SDS011;57391;51.306;22.680;2024-01-15T01:53:34;16.70;;;7.90;;
70049;SDS011;57391;51.306;22.680;2024-01-15T01:55:38;19.40;;;7.50;;
70049;SDS011;57391;51.306;22.680;2024-01-15T01:57:41;17.80;;;8.10;;
70049;SDS011;57391;51.306;22.680;2024-01-15T01:59:44;17.50;;;7.60;;
70049;SDS011;57391;51.306;22.680;2024-01-15T02:01:48;18.00;;;8.60;;
70049;SDS011;57391;51.306;22.680;2024-01-15T02:03:51;18.50;;;8.70;;
70049;SDS011;57391;51.306;22.680;2024-01-15T02:05:53;16.30;;;7.50;;
70049;SDS011;57391;51.306;22.680;2024-01-15T02:07:55;17.30;;;7.80;;
70049;SDS011;57391;51.306;22.680;2024-01-15T02:09:57;18.70;;;8.10;;
70049;SDS011;57391;51.306;22.680;2024-01-15T02:11:59;15.60;;;7.30;;
70049;SDS011;57391;51.306;22.680;2024-01-15T02:14:02;17.80;;;8.60;;
70049;SDS011;57391;51.306;22.680;2024-01-15T02:16:03;15.30;;;7.70;;
70049;SDS011;57391;51.306;22.680;2024-01-15T02:18:06;17.30;;;6.90;;
70049;SDS011;57391;51.306;22.680;2024-01-15T02:20:11;15.60;;;7.70;;
70049;SDS011;57391;51.306;22.680;2024-01-15T02:22:12;16.00;;;8.20;;
70049;SDS011;57391;51.306;22.680;2024-01-15T02:24:14;15.70;;;6.50;;
70049;SDS011;57391;51.306;22.680;2024-01-15T02:26:16;16.00;;;6.40;;
70049;SDS011;57391;51.306;22.680;2024-01-15T02:28:18;17.70;;;8.00;;
70049;SDS011;57391;51.306;22.680;2024-01-15T02:30:21;18.20;;;8.10;;
70049;SDS011;57391;51.306;22.680;2024-01-15T02:32:25;15.70;;;7.30;;
70049;SDS011;57391;51.306;22.680;2024-01-15T02:34:31;19.00;;;7.90;;
70049;SDS011;57391;51.306;22.680;2024-01-15T02:36:34;17.20;;;7.00;;
70049;SDS011;57391;51.306;22.680;2024-01-15T02:38:36;18.60;;;8.60;;
70049;SDS011;57391;51.306;22.680;2024-01-15T02:40:38;17.80;;;8.10;;
70049;SDS011;57391;51.306;22.680;2024-01-15T02:42:40;17.30;;;7.80;;
70049;SDS011;57391;51.306;22.680;2024-01-15T02:44:41;15.00;;;7.80;;
70049;SDS011;57391;51.306;22.680;2024-01-15T02:46:43;18.90;;;8.60;;
70049;SDS011;57391;51.306;22.680;2024-01-15T02:48:45;19.20;;;8.80;;
70049;SDS011;57391;51.306;22.680;2024-01-15T02:50:47;17.50;;;8.00;;
70049;SDS011;57391;51.306;22.680;2024-01-15T02:52:49;17.90;;;8.40;;
70049;SDS011;57391;51.306;22.680;2024-01-15T02:54:50;15.70;;;7.40;;
70049;SDS011;57391;51.306;22.680;2024-01-15T02:56:52;17.00;;;7.80;;
70049;SDS011;57391;51.306;22.680;2024-01-15T02:58:54;15.00;;;8.30;;
70049;SDS011;57391;51.306;22.680;2024-01-15T03:00:55;15.50;;;7.10;;
70049;SDS011;57391;51.306;22.680;2024-01-15T03:02:57;18.80;;;8.00;;
70049;SDS011;57391;51.306;22.680;2024-01-15T03:04:59;14.40;;;6.50;;
70049;SDS011;57391;51.306;22.680;2024-01-15T03:07:00;14.40;;;6.60;;
70049;SDS011;57391;51.306;22.680;2024-01-15T03:09:02;18.30;;;8.70;;
70049;SDS011;57391;51.306;22.680;2024-01-15T03:11:04;17.20;;;7.70;;
70049;SDS011;57391;51.306;22.680;2024-01-15T03:13:06;15.40;;;7.10;;
70049;SDS011;57391;51.306;22.680;2024-01-15T03:15:08;12.90;;;7.00;;
70049;SDS011;57391;51.306;22.680;2024-01-15T03:17:10;17.50;;;7.90;;
70049;SDS011;57391;51.306;22.680;2024-01-15T03:19:12;13.20;;;6.20;;
70049;SDS011;57391;51.306;22.680;2024-01-15T03:21:14;14.70;;;6.70;;
70049;SDS011;57391;51.306;22.680;2024-01-15T03:23:16;16.40;;;8.20;;
70049;SDS011;57391;51.306;22.680;2024-01-15T03:25:17;16.30;;;7.60;;
70049;SDS011;57391;51.306;22.680;2024-01-15T03:27:19;14.80;;;6.60;;
70049;SDS011;57391;51.306;22.680;2024-01-15T03:29:21;16.30;;;8.00;;
70049;SDS011;57391;51.306;22.680;2024-01-15T03:31:23;15.60;;;6.30;;
70049;SDS011;57391;51.306;22.680;2024-01-15T03:33:25;14.30;;;6.70;;
70049;SDS011;57391;51.306;22.680;2024-01-15T03:35:26;16.20;;;7.80;;
70049;SDS011;57391;51.306;22.680;2024-01-15T03:37:30;15.60;;;6.80;;
70049;SDS011;57391;51.306;22.680;2024-01-15T03:39:32;14.90;;;7.00;;
70049;SDS011;57391;51.306;22.680;2024-01-15T03:41:33;14.80;;;6.70;;
70049;SDS011;57391;51.306;22.680;2024-01-15T03:43:35;14.90;;;7.60;;
70049;SDS011;57391;51.306;22.680;2024-01-15T03:45:37;16.20;;;7.70;;
70049;SDS011;57391;51.306;22.680;2024-01-15T03:47:39;12.90;;;6.00;;
70049;SDS011;57391;51.306;22.680;2024-01-15T03:49:41;12.00;;;6.60;;
70049;SDS011;57391;51.306;22.680;2024-01-15T03:51:42;17.30;;;7.40;;
70049;SDS011;57391;51.306;22.680;2024-01-15T03:53:44;14.10;;;6.70;;
70049;SDS011;57391;51.306;22.680;2024-01-15T03:55:46;13.70;;;6.50;;
70049;SDS011;57391;51.306;22.680;2024-01-15T03:57:48;9.60;;;5.90;;
70049;SDS011;57391;51.306;22.680;2024-01-15T03:59:50;11.70;;;6.00;;
70049;SDS011;57391;51.306;22.680;2024-01-15T04:01:51;11.50;;;5.60;;
70049;SDS011;57391;51.306;22.680;2024-01-15T04:03:54;15.70;;;7.20;;
70049;SDS011;57391;51.306;22.680;2024-01-15T04:05:56;12.70;;;6.00;;
70049;SDS011;57391;51.306;22.680;2024-01-15T04:07:58;12.60;;;5.80;;
70049;SDS011;57391;51.306;22.680;2024-01-15T04:10:00;11.20;;;5.10;;
70049;SDS011;57391;51.306;22.680;2024-01-15T04:12:01;11.90;;;5.60;;
70049;SDS011;57391;51.306;22.680;2024-01-15T04:14:03;11.20;;;5.00;;
70049;SDS011;57391;51.306;22.680;2024-01-15T04:16:05;12.20;;;5.20;;
70049;SDS011;57391;51.306;22.680;2024-01-15T04:18:07;12.20;;;5.70;;
70049;SDS011;57391;51.306;22.680;2024-01-15T04:20:09;11.80;;;4.90;;
70049;SDS011;57391;51.306;22.680;2024-01-15T04:22:11;14.10;;;6.10;;
70049;SDS011;57391;51.306;22.680;2024-01-15T04:24:13;10.80;;;4.60;;
70049;SDS011;57391;51.306;22.680;2024-01-15T04:26:15;14.30;;;5.80;;
70049;SDS011;57391;51.306;22.680;2024-01-15T04:28:16;12.70;;;4.90;;
70049;SDS011;57391;51.306;22.680;2024-01-15T04:30:18;8.30;;;4.20;;
70049;SDS011;57391;51.306;22.680;2024-01-15T04:32:20;11.40;;;4.60;;
70049;SDS011;57391;51.306;22.680;2024-01-15T04:34:21;10.00;;;4.70;;
70049;SDS011;57391;51.306;22.680;2024-01-15T04:36:23;11.50;;;4.60;;
70049;SDS011;57391;51.306;22.680;2024-01-15T04:38:25;11.40;;;5.00;;
70049;SDS011;57391;51.306;22.680;2024-01-15T04:40:26;9.70;;;4.10;;
70049;SDS011;57391;51.306;22.680;2024-01-15T04:42:28;9.40;;;4.40;;
70049;SDS011;57391;51.306;22.680;2024-01-15T04:44:31;12.00;;;5.10;;
70049;SDS011;57391;51.306;22.680;2024-01-15T04:46:32;12.90;;;5.20;;
70049;SDS011;57391;51.306;22.680;2024-01-15T04:48:34;10.80;;;4.70;;
70049;SDS011;57391;51.306;22.680;2024-01-15T04:50:36;11.00;;;5.30;;
70049;SDS011;57391;51.306;22.680;2024-01-15T04:52:38;10.70;;;4.80;;
70049;SDS011;57391;51.306;22.680;2024-01-15T04:54:40;12.00;;;4.90;;
70049;SDS011;57391;51.306;22.680;2024-01-15T04:56:41;8.30;;;3.90;;
70049;SDS011;57391;51.306;22.680;2024-01-15T04:58:43;9.90;;;4.50;;
70049;SDS011;57391;51.306;22.680;2024-01-15T05:00:45;10.50;;;4.50;;
70049;SDS011;57391;51.306;22.680;2024-01-15T05:02:47;7.70;;;3.40;;
70049;SDS011;57391;51.306;22.680;2024-01-15T05:04:48;9.60;;;4.60;;
70049;SDS011;57391;51.306;22.680;2024-01-15T05:06:50;9.90;;;4.50;;
70049;SDS011;57391;51.306;22.680;2024-01-15T05:08:52;9.00;;;4.00;;
70049;SDS011;57391;51.306;22.680;2024-01-15T05:10:54;10.10;;;4.50;;
70049;SDS011;57391;51.306;22.680;2024-01-15T05:12:56;9.10;;;4.10;;
70049;SDS011;57391;51.306;22.680;2024-01-15T05:14:57;8.60;;;3.40;;
70049;SDS011;57391;51.306;22.680;2024-01-15T05:16:59;9.40;;;3.70;;
70049;SDS011;57391;51.306;22.680;2024-01-15T05:19:01;8.40;;;4.00;;
70049;SDS011;57391;51.306;22.680;2024-01-15T05:21:03;8.20;;;3.50;;
70049;SDS011;57391;51.306;22.680;2024-01-15T05:23:05;10.00;;;3.50;;
70049;SDS011;57391;51.306;22.680;2024-01-15T05:25:07;8.40;;;3.90;;
70049;SDS011;57391;51.306;22.680;2024-01-15T05:27:09;10.30;;;3.90;;
70049;SDS011;57391;51.306;22.680;2024-01-15T05:29:11;9.20;;;4.10;;
70049;SDS011;57391;51.306;22.680;2024-01-15T05:31:12;10.70;;;4.90;;
70049;SDS011;57391;51.306;22.680;2024-01-15T05:33:14;10.60;;;4.60;;
70049;SDS011;57391;51.306;22.680;2024-01-15T05:35:16;8.90;;;3.90;;
70049;SDS011;57391;51.306;22.680;2024-01-15T05:37:18;12.70;;;5.40;;
70049;SDS011;57391;51.306;22.680;2024-01-15T05:39:20;11.80;;;5.10;;
70049;SDS011;57391;51.306;22.680;2024-01-15T05:41:22;9.80;;;4.30;;
70049;SDS011;57391;51.306;22.680;2024-01-15T05:43:24;9.90;;;4.40;;
70049;SDS011;57391;51.306;22.680;2024-01-15T05:45:30;7.00;;;3.70;;
70049;SDS011;57391;51.306;22.680;2024-01-15T05:47:32;8.60;;;4.60;;
70049;SDS011;57391;51.306;22.680;2024-01-15T05:49:34;8.20;;;4.10;;
70049;SDS011;57391;51.306;22.680;2024-01-15T05:51:36;9.00;;;3.90;;
70049;SDS011;57391;51.306;22.680;2024-01-15T05:53:37;7.50;;;3.50;;
70049;SDS011;57391;51.306;22.680;2024-01-15T05:55:41;9.80;;;4.50;;
70049;SDS011;57391;51.306;22.680;2024-01-15T05:57:43;8.60;;;3.90;;
70049;SDS011;57391;51.306;22.680;2024-01-15T05:59:45;9.40;;;4.30;;
70049;SDS011;57391;51.306;22.680;2024-01-15T06:01:47;10.50;;;4.60;;
70049;SDS011;57391;51.306;22.680;2024-01-15T06:03:49;6.70;;;3.40;;
70049;SDS011;57391;51.306;22.680;2024-01-15T06:05:51;9.70;;;4.40;;
70049;SDS011;57391;51.306;22.680;2024-01-15T06:07:53;8.00;;;4.00;;
70049;SDS011;57391;51.306;22.680;2024-01-15T06:09:54;7.10;;;3.60;;
70049;SDS011;57391;51.306;22.680;2024-01-15T06:11:58;7.90;;;3.30;;
70049;SDS011;57391;51.306;22.680;2024-01-15T06:14:00;7.20;;;3.50;;
70049;SDS011;57391;51.306;22.680;2024-01-15T06:16:02;7.20;;;3.30;;
70049;SDS011;57391;51.306;22.680;2024-01-15T06:18:04;7.50;;;3.30;;
70049;SDS011;57391;51.306;22.680;2024-01-15T06:20:07;8.70;;;4.30;;
70049;SDS011;57391;51.306;22.680;2024-01-15T06:22:10;8.90;;;3.50;;
70049;SDS011;57391;51.306;22.680;2024-01-15T06:24:12;8.10;;;3.30;;
70049;SDS011;57391;51.306;22.680;2024-01-15T06:26:15;8.00;;;3.60;;
70049;SDS011;57391;51.306;22.680;2024-01-15T06:28:16;10.20;;;3.40;;
70049;SDS011;57391;51.306;22.680;2024-01-15T06:30:18;8.50;;;3.60;;
70049;SDS011;57391;51.306;22.680;2024-01-15T06:32:20;7.40;;;3.10;;
70049;SDS011;57391;51.306;22.680;2024-01-15T06:34:22;7.40;;;2.80;;
70049;SDS011;57391;51.306;22.680;2024-01-15T06:36:23;8.60;;;3.50;;
70049;SDS011;57391;51.306;22.680;2024-01-15T06:38:25;7.50;;;3.40;;
70049;SDS011;57391;51.306;22.680;2024-01-15T06:40:27;6.70;;;3.00;;
70049;SDS011;57391;51.306;22.680;2024-01-15T06:42:29;11.40;;;4.60;;
70049;SDS011;57391;51.306;22.680;2024-01-15T06:44:30;8.00;;;3.30;;
70049;SDS011;57391;51.306;22.680;2024-01-15T06:46:32;8.80;;;4.10;;
70049;SDS011;57391;51.306;22.680;2024-01-15T06:48:34;8.50;;;3.70;;
70049;SDS011;57391;51.306;22.680;2024-01-15T06:50:36;5.70;;;2.70;;
70049;SDS011;57391;51.306;22.680;2024-01-15T06:52:38;9.20;;;3.70;;
70049;SDS011;57391;51.306;22.680;2024-01-15T06:54:39;7.80;;;3.00;;
70049;SDS011;57391;51.306;22.680;2024-01-15T06:56:41;8.50;;;3.20;;
70049;SDS011;57391;51.306;22.680;2024-01-15T06:58:43;9.10;;;3.50;;
70049;SDS011;57391;51.306;22.680;2024-01-15T07:00:45;8.10;;;3.90;;
70049;SDS011;57391;51.306;22.680;2024-01-15T07:02:47;9.00;;;4.30;;
70049;SDS011;57391;51.306;22.680;2024-01-15T07:04:48;7.60;;;3.60;;
70049;SDS011;57391;51.306;22.680;2024-01-15T07:06:50;9.00;;;3.90;;
70049;SDS011;57391;51.306;22.680;2024-01-15T07:08:52;8.10;;;4.00;;
70049;SDS011;57391;51.306;22.680;2024-01-15T07:10:54;10.30;;;3.90;;
70049;SDS011;57391;51.306;22.680;2024-01-15T07:12:55;9.70;;;4.10;;
70049;SDS011;57391;51.306;22.680;2024-01-15T07:14:57;10.60;;;4.80;;
70049;SDS011;57391;51.306;22.680;2024-01-15T07:16:59;11.60;;;4.90;;
70049;SDS011;57391;51.306;22.680;2024-01-15T07:19:01;8.90;;;4.00;;
70049;SDS011;57391;51.306;22.680;2024-01-15T07:21:03;9.90;;;4.70;;
70049;SDS011;57391;51.306;22.680;2024-01-15T07:23:05;11.10;;;4.00;;
70049;SDS011;57391;51.306;22.680;2024-01-15T07:25:08;9.60;;;3.90;;
70049;SDS011;57391;51.306;22.680;2024-01-15T07:27:10;8.30;;;3.80;;
70049;SDS011;57391;51.306;22.680;2024-01-15T07:29:12;8.30;;;4.20;;
70049;SDS011;57391;51.306;22.680;2024-01-15T07:31:15;9.30;;;3.50;;
70049;SDS011;57391;51.306;22.680;2024-01-15T07:33:19;7.80;;;3.70;;
70049;SDS011;57391;51.306;22.680;2024-01-15T07:35:21;7.90;;;4.00;;
70049;SDS011;57391;51.306;22.680;2024-01-15T07:37:23;7.40;;;3.70;;
70049;SDS011;57391;51.306;22.680;2024-01-15T07:39:25;9.60;;;4.20;;
70049;SDS011;57391;51.306;22.680;2024-01-15T07:41:27;9.20;;;3.50;;
70049;SDS011;57391;51.306;22.680;2024-01-15T07:43:29;9.00;;;3.70;;
70049;SDS011;57391;51.306;22.680;2024-01-15T07:45:31;5.50;;;2.70;;
70049;SDS011;57391;51.306;22.680;2024-01-15T07:47:32;10.00;;;3.70;;
70049;SDS011;57391;51.306;22.680;2024-01-15T07:49:34;8.00;;;3.50;;
70049;SDS011;57391;51.306;22.680;2024-01-15T07:51:36;8.30;;;3.60;;
70049;SDS011;57391;51.306;22.680;2024-01-15T07:53:38;9.10;;;3.90;;
70049;SDS011;57391;51.306;22.680;2024-01-15T07:55:39;9.30;;;3.90;;
70049;SDS011;57391;51.306;22.680;2024-01-15T07:57:42;7.70;;;3.40;;
70049;SDS011;57391;51.306;22.680;2024-01-15T07:59:44;7.60;;;4.00;;
70049;SDS011;57391;51.306;22.680;2024-01-15T08:01:45;10.50;;;4.60;;
70049;SDS011;57391;51.306;22.680;2024-01-15T08:03:48;9.70;;;3.60;;
70049;SDS011;57391;51.306;22.680;2024-01-15T08:05:50;11.90;;;5.00;;
70049;SDS011;57391;51.306;22.680;2024-01-15T08:07:54;8.90;;;3.60;;
70049;SDS011;57391;51.306;22.680;2024-01-15T08:09:55;8.30;;;3.80;;
70049;SDS011;57391;51.306;22.680;2024-01-15T08:11:57;10.80;;;3.50;;
70049;SDS011;57391;51.306;22.680;2024-01-15T08:13:59;12.50;;;5.90;;
70049;SDS011;57391;51.306;22.680;2024-01-15T08:16:01;11.30;;;4.30;;
70049;SDS011;57391;51.306;22.680;2024-01-15T08:18:03;13.40;;;5.80;;
70049;SDS011;57391;51.306;22.680;2024-01-15T08:20:05;11.10;;;5.10;;
70049;SDS011;57391;51.306;22.680;2024-01-15T08:22:08;15.40;;;5.60;;
70049;SDS011;57391;51.306;22.680;2024-01-15T08:24:10;11.00;;;4.90;;
70049;SDS011;57391;51.306;22.680;2024-01-15T08:26:11;12.10;;;5.20;;
70049;SDS011;57391;51.306;22.680;2024-01-15T08:28:13;10.40;;;4.50;;
70049;SDS011;57391;51.306;22.680;2024-01-15T08:30:15;13.80;;;5.70;;
70049;SDS011;57391;51.306;22.680;2024-01-15T08:32:17;13.80;;;5.70;;
70049;SDS011;57391;51.306;22.680;2024-01-15T08:34:19;12.60;;;5.70;;
70049;SDS011;57391;51.306;22.680;2024-01-15T08:36:21;12.60;;;5.70;;
70049;SDS011;57391;51.306;22.680;2024-01-15T08:38:23;9.90;;;4.40;;
70049;SDS011;57391;51.306;22.680;2024-01-15T08:40:26;14.70;;;7.30;;
70049;SDS011;57391;51.306;22.680;2024-01-15T08:42:28;17.20;;;9.30;;
70049;SDS011;57391;51.306;22.680;2024-01-15T08:44:30;17.10;;;8.30;;
70049;SDS011;57391;51.306;22.680;2024-01-15T08:46:32;20.00;;;10.10;;
70049;SDS011;57391;51.306;22.680;2024-01-15T08:48:36;13.60;;;7.30;;
70049;SDS011;57391;51.306;22.680;2024-01-15T08:50:38;14.80;;;6.90;;
70049;SDS011;57391;51.306;22.680;2024-01-15T08:52:40;15.60;;;7.70;;
70049;SDS011;57391;51.306;22.680;2024-01-15T08:54:42;13.80;;;6.70;;
70049;SDS011;57391;51.306;22.680;2024-01-15T08:56:44;13.60;;;7.00;;
70049;SDS011;57391;51.306;22.680;2024-01-15T08:58:45;15.70;;;8.00;;
70049;SDS011;57391;51.306;22.680;2024-01-15T09:00:47;14.20;;;6.70;;
70049;SDS011;57391;51.306;22.680;2024-01-15T09:02:49;13.20;;;6.90;;
70049;SDS011;57391;51.306;22.680;2024-01-15T09:04:51;13.80;;;5.50;;
70049;SDS011;57391;51.306;22.680;2024-01-15T09:06:53;12.80;;;5.90;;
70049;SDS011;57391;51.306;22.680;2024-01-15T09:08:58;12.80;;;5.60;;
70049;SDS011;57391;51.306;22.680;2024-01-15T09:10:59;15.10;;;6.90;;
70049;SDS011;57391;51.306;22.680;2024-01-15T09:13:04;17.40;;;7.50;;
70049;SDS011;57391;51.306;22.680;2024-01-15T09:15:09;15.30;;;7.00;;
70049;SDS011;57391;51.306;22.680;2024-01-15T09:17:11;11.20;;;5.70;;
70049;SDS011;57391;51.306;22.680;2024-01-15T09:19:15;17.10;;;8.40;;
70049;SDS011;57391;51.306;22.680;2024-01-15T09:21:17;13.50;;;6.20;;
70049;SDS011;57391;51.306;22.680;2024-01-15T09:23:18;13.90;;;5.70;;
70049;SDS011;57391;51.306;22.680;2024-01-15T09:25:20;11.30;;;5.20;;
70049;SDS011;57391;51.306;22.680;2024-01-15T09:27:22;22.10;;;10.00;;
70049;SDS011;57391;51.306;22.680;2024-01-15T09:29:24;18.50;;;9.40;;
70049;SDS011;57391;51.306;22.680;2024-01-15T09:31:26;23.40;;;10.70;;
70049;SDS011;57391;51.306;22.680;2024-01-15T09:33:29;14.80;;;7.30;;
70049;SDS011;57391;51.306;22.680;2024-01-15T09:35:30;14.00;;;7.20;;
70049;SDS011;57391;51.306;22.680;2024-01-15T09:37:34;14.60;;;6.70;;
70049;SDS011;57391;51.306;22.680;2024-01-15T09:39:36;10.30;;;5.40;;
70049;SDS011;57391;51.306;22.680;2024-01-15T09:41:38;19.90;;;8.60;;
70049;SDS011;57391;51.306;22.680;2024-01-15T09:43:40;13.70;;;5.80;;
70049;SDS011;57391;51.306;22.680;2024-01-15T09:45:42;13.50;;;6.60;;
70049;SDS011;57391;51.306;22.680;2024-01-15T09:47:45;13.10;;;5.70;;
70049;SDS011;57391;51.306;22.680;2024-01-15T09:49:47;14.00;;;6.80;;
70049;SDS011;57391;51.306;22.680;2024-01-15T09:51:49;15.10;;;6.80;;
70049;SDS011;57391;51.306;22.680;2024-01-15T09:53:51;14.30;;;6.70;;
70049;SDS011;57391;51.306;22.680;2024-01-15T09:55:54;12.70;;;5.80;;
70049;SDS011;57391;51.306;22.680;2024-01-15T09:57:56;10.30;;;5.10;;
70049;SDS011;57391;51.306;22.680;2024-01-15T10:00:01;10.10;;;4.70;;
70049;SDS011;57391;51.306;22.680;2024-01-15T10:02:07;11.50;;;4.80;;
70049;SDS011;57391;51.306;22.680;2024-01-15T10:04:11;9.50;;;4.80;;
70049;SDS011;57391;51.306;22.680;2024-01-15T10:06:16;10.70;;;4.10;;
70049;SDS011;57391;51.306;22.680;2024-01-15T10:08:19;10.50;;;4.90;;
70049;SDS011;57391;51.306;22.680;2024-01-15T10:10:22;8.60;;;4.10;;
70049;SDS011;57391;51.306;22.680;2024-01-15T10:12:24;9.80;;;4.20;;
70049;SDS011;57391;51.306;22.680;2024-01-15T10:14:29;12.70;;;4.60;;
70049;SDS011;57391;51.306;22.680;2024-01-15T10:16:31;12.10;;;4.50;;
70049;SDS011;57391;51.306;22.680;2024-01-15T10:18:33;11.00;;;5.00;;
70049;SDS011;57391;51.306;22.680;2024-01-15T10:20:35;9.10;;;4.50;;
70049;SDS011;57391;51.306;22.680;2024-01-15T10:22:40;10.00;;;4.20;;
70049;SDS011;57391;51.306;22.680;2024-01-15T10:24:43;9.10;;;3.50;;
70049;SDS011;57391;51.306;22.680;2024-01-15T10:26:45;8.90;;;4.00;;
70049;SDS011;57391;51.306;22.680;2024-01-15T10:28:50;10.50;;;3.90;;
70049;SDS011;57391;51.306;22.680;2024-01-15T10:30:55;10.10;;;5.20;;
70049;SDS011;57391;51.306;22.680;2024-01-15T10:33:01;8.10;;;3.80;;
70049;SDS011;57391;51.306;22.680;2024-01-15T10:35:07;9.10;;;4.10;;
70049;SDS011;57391;51.306;22.680;2024-01-15T10:37:10;8.20;;;3.60;;
70049;SDS011;57391;51.306;22.680;2024-01-15T10:39:13;7.50;;;3.40;;
70049;SDS011;57391;51.306;22.680;2024-01-15T10:41:15;7.60;;;3.90;;
70049;SDS011;57391;51.306;22.680;2024-01-15T10:43:17;7.90;;;3.90;;
70049;SDS011;57391;51.306;22.680;2024-01-15T10:45:19;11.50;;;4.00;;
70049;SDS011;57391;51.306;22.680;2024-01-15T10:47:21;9.70;;;3.80;;
70049;SDS011;57391;51.306;22.680;2024-01-15T10:49:24;8.50;;;4.10;;
70049;SDS011;57391;51.306;22.680;2024-01-15T10:51:30;10.70;;;4.00;;
70049;SDS011;57391;51.306;22.680;2024-01-15T10:53:32;11.60;;;4.30;;
70049;SDS011;57391;51.306;22.680;2024-01-15T10:55:37;8.80;;;3.90;;
70049;SDS011;57391;51.306;22.680;2024-01-15T10:57:40;9.80;;;3.70;;
70049;SDS011;57391;51.306;22.680;2024-01-15T10:59:42;10.40;;;4.30;;
70049;SDS011;57391;51.306;22.680;2024-01-15T11:01:44;11.00;;;5.00;;
70049;SDS011;57391;51.306;22.680;2024-01-15T11:03:47;8.90;;;3.60;;
70049;SDS011;57391;51.306;22.680;2024-01-15T11:05:50;8.80;;;4.20;;
70049;SDS011;57391;51.306;22.680;2024-01-15T11:07:58;8.70;;;3.90;;
70049;SDS011;57391;51.306;22.680;2024-01-15T11:10:03;8.10;;;3.50;;
70049;SDS011;57391;51.306;22.680;2024-01-15T11:12:13;10.20;;;4.10;;
70049;SDS011;57391;51.306;22.680;2024-01-15T11:14:38;11.40;;;4.10;;
70049;SDS011;57391;51.306;22.680;2024-01-15T11:16:54;8.50;;;4.00;;
70049;SDS011;57391;51.306;22.680;2024-01-15T11:19:05;11.40;;;4.40;;
70049;SDS011;57391;51.306;22.680;2024-01-15T11:23:43;9.70;;;3.60;;
70049;SDS011;57391;51.306;22.680;2024-01-15T11:26:00;10.90;;;4.20;;
70049;SDS011;57391;51.306;22.680;2024-01-15T11:28:51;9.70;;;3.70;;
70049;SDS011;57391;51.306;22.680;2024-01-15T11:30:53;9.00;;;3.80;;
70049;SDS011;57391;51.306;22.680;2024-01-15T11:32:55;9.10;;;3.70;;
70049;SDS011;57391;51.306;22.680;2024-01-15T11:34:58;10.60;;;3.80;;
70049;SDS011;57391;51.306;22.680;2024-01-15T11:37:03;9.40;;;3.70;;
70049;SDS011;57391;51.306;22.680;2024-01-15T11:41:29;8.40;;;3.80;;
70049;SDS011;57391;51.306;22.680;2024-01-15T11:43:32;10.20;;;4.30;;
70049;SDS011;57391;51.306;22.680;2024-01-15T11:45:35;10.10;;;4.20;;
70049;SDS011;57391;51.306;22.680;2024-01-15T11:48:08;10.10;;;4.70;;
70049;SDS011;57391;51.306;22.680;2024-01-15T11:50:15;11.70;;;4.40;;
70049;SDS011;57391;51.306;22.680;2024-01-15T11:52:18;9.00;;;3.80;;
70049;SDS011;57391;51.306;22.680;2024-01-15T11:54:23;8.80;;;4.20;;
70049;SDS011;57391;51.306;22.680;2024-01-15T11:56:26;8.50;;;3.90;;
70049;SDS011;57391;51.306;22.680;2024-01-15T11:58:28;8.70;;;3.90;;
70049;SDS011;57391;51.306;22.680;2024-01-15T12:00:31;8.80;;;3.80;;
70049;SDS011;57391;51.306;22.680;2024-01-15T12:02:33;14.30;;;3.40;;
70049;SDS011;57391;51.306;22.680;2024-01-15T12:04:35;9.10;;;3.20;;
70049;SDS011;57391;51.306;22.680;2024-01-15T12:06:37;9.20;;;3.50;;